sensor_id;sensor_type;location;lat;lon;timestamp;pressure;altitude;pressure_sealevel;temperature;humidity
8049;BME280;20935;42.660;23.342;2023-03-25T00:01:59;94480.13;;;8.56;100.00
8049;BME280;20935;42.660;23.342;2023-03-25T00:04:48;94480.69;;;9.10;100.00
8049;BME280;20935;42.660;23.342;2023-03-25T00:07:34;94477.78;;;8.79;100.00
8049;BME280;20935;42.660;23.342;2023-03-25T00:10:20;94481.56;;;8.85;100.00
8049;BME280;20935;42.660;23.342;2023-03-25T00:13:07;94478.28;;;8.42;100.00
8049;BME280;20935;42.660;23.342;2023-03-25T00:15:57;94486.63;;;8.44;100.00
8049;BME280;20935;42.660;23.342;2023-03-25T00:18:42;94479.84;;;8.08;100.00
8049;BME280;20935;42.660;23.342;2023-03-25T00:21:30;94469.94;;;8.16;100.00
8049;BME280;20935;42.660;23.342;2023-03-25T00:24:17;94456.56;;;8.12;100.00
8049;BME280;20935;42.660;23.342;2023-03-25T00:27:03;94460.41;;;8.15;100.00
8049;BME280;20935;42.660;23.342;2023-03-25T00:29:50;94461.88;;;8.37;100.00
8049;BME280;20935;42.660;23.342;2023-03-25T00:32:35;94459.91;;;8.62;100.00
8049;BME280;20935;42.660;23.342;2023-03-25T00:35:22;94462.63;;;8.55;100.00
8049;BME280;20935;42.660;23.342;2023-03-25T00:38:08;94458.09;;;8.20;100.00
8049;BME280;20935;42.660;23.342;2023-03-25T00:40:54;94457.34;;;8.09;100.00
8049;BME280;20935;42.660;23.342;2023-03-25T00:43:39;94455.34;;;8.59;100.00
8049;BME280;20935;42.660;23.342;2023-03-25T00:46:28;94461.03;;;8.68;100.00
8049;BME280;20935;42.660;23.342;2023-03-25T00:49:14;94451.97;;;8.41;100.00
8049;BME280;20935;42.660;23.342;2023-03-25T00:52:00;94451.59;;;8.28;100.00
8049;BME280;20935;42.660;23.342;2023-03-25T00:54:46;94453.16;;;8.04;100.00
8049;BME280;20935;42.660;23.342;2023-03-25T00:57:32;94447.44;;;8.10;100.00
8049;BME280;20935;42.660;23.342;2023-03-25T01:00:18;94436.38;;;8.39;100.00
8049;BME280;20935;42.660;23.342;2023-03-25T01:03:05;94440.59;;;8.16;100.00
8049;BME280;20935;42.660;23.342;2023-03-25T01:05:52;94439.06;;;8.00;100.00
8049;BME280;20935;42.660;23.342;2023-03-25T01:08:40;94436.38;;;8.18;100.00
8049;BME280;20935;42.660;23.342;2023-03-25T01:11:27;94439.81;;;8.19;100.00
8049;BME280;20935;42.660;23.342;2023-03-25T01:14:15;94434.53;;;7.73;100.00
8049;BME280;20935;42.660;23.342;2023-03-25T01:17:01;94430.75;;;7.56;100.00
8049;BME280;20935;42.660;23.342;2023-03-25T01:19:47;94423.13;;;7.65;100.00
8049;BME280;20935;42.660;23.342;2023-03-25T01:22:33;94423.13;;;7.79;100.00
8049;BME280;20935;42.660;23.342;2023-03-25T01:25:18;94426.50;;;8.01;100.00
8049;BME280;20935;42.660;23.342;2023-03-25T01:28:04;94426.16;;;7.95;100.00
8049;BME280;20935;42.660;23.342;2023-03-25T01:30:50;94416.25;;;7.82;100.00
8049;BME280;20935;42.660;23.342;2023-03-25T01:33:36;94407.50;;;7.78;100.00
8049;BME280;20935;42.660;23.342;2023-03-25T01:36:23;94404.13;;;7.56;100.00
8049;BME280;20935;42.660;23.342;2023-03-25T01:39:13;94407.13;;;7.69;100.00
8049;BME280;20935;42.660;23.342;2023-03-25T01:41:59;94398.78;;;7.56;100.00
8049;BME280;20935;42.660;23.342;2023-03-25T01:45:12;94400.28;;;7.61;100.00
8049;BME280;20935;42.660;23.342;2023-03-25T01:48:02;94390.00;;;7.70;100.00
8049;BME280;20935;42.660;23.342;2023-03-25T01:50:52;94397.25;;;7.51;100.00
8049;BME280;20935;42.660;23.342;2023-03-25T01:53:40;94396.84;;;7.56;100.00
8049;BME280;20935;42.660;23.342;2023-03-25T01:56:30;94400.66;;;7.70;100.00
8049;BME280;20935;42.660;23.342;2023-03-25T01:59:19;94398.72;;;7.84;100.00
8049;BME280;20935;42.660;23.342;2023-03-25T02:02:06;94401.78;;;7.83;100.00
8049;BME280;20935;42.660;23.342;2023-03-25T02:04:56;94402.56;;;7.34;100.00
8049;BME280;20935;42.660;23.342;2023-03-25T02:07:44;94393.44;;;7.06;100.00
8049;BME280;20935;42.660;23.342;2023-03-25T02:10:33;94395.72;;;7.12;100.00
8049;BME280;20935;42.660;23.342;2023-03-25T02:13:20;94398.03;;;7.24;100.00
8049;BME280;20935;42.660;23.342;2023-03-25T02:16:18;94386.97;;;7.25;100.00
8049;BME280;20935;42.660;23.342;2023-03-25T02:19:26;94383.94;;;7.16;100.00
8049;BME280;20935;42.660;23.342;2023-03-25T02:22:49;94376.31;;;7.04;100.00
8049;BME280;20935;42.660;23.342;2023-03-25T02:29:06;94379.75;;;7.04;100.00
8049;BME280;20935;42.660;23.342;2023-03-25T02:32:09;94384.28;;;6.97;100.00
8049;BME280;20935;42.660;23.342;2023-03-25T02:35:14;94382.03;;;7.38;100.00
8049;BME280;20935;42.660;23.342;2023-03-25T02:38:17;94383.19;;;7.12;100.00
8049;BME280;20935;42.660;23.342;2023-03-25T02:41:10;94383.88;;;6.74;100.00
8049;BME280;20935;42.660;23.342;2023-03-25T02:44:01;94380.47;;;6.80;100.00
8049;BME280;20935;42.660;23.342;2023-03-25T02:46:52;94384.28;;;6.83;100.00
8049;BME280;20935;42.660;23.342;2023-03-25T02:49:41;94376.66;;;6.74;100.00
8049;BME280;20935;42.660;23.342;2023-03-25T02:52:32;94376.66;;;6.74;100.00
8049;BME280;20935;42.660;23.342;2023-03-25T02:55:23;94379.75;;;7.19;100.00
8049;BME280;20935;42.660;23.342;2023-03-25T02:58:10;94364.91;;;7.39;100.00
8049;BME280;20935;42.660;23.342;2023-03-25T03:00:58;94369.84;;;6.94;100.00
8049;BME280;20935;42.660;23.342;2023-03-25T03:03:44;94366.44;;;7.04;100.00
8049;BME280;20935;42.660;23.342;2023-03-25T03:06:30;94364.50;;;6.91;100.00
8049;BME280;20935;42.660;23.342;2023-03-25T03:09:30;94364.50;;;6.84;100.00
8049;BME280;20935;42.660;23.342;2023-03-25T03:12:31;94364.47;;;6.70;100.00
8049;BME280;20935;42.660;23.342;2023-03-25T03:15:27;94359.50;;;6.61;100.00
8049;BME280;20935;42.660;23.342;2023-03-25T03:18:26;94356.91;;;6.79;100.00
8049;BME280;20935;42.660;23.342;2023-03-25T03:21:20;94366.78;;;6.82;100.00
8049;BME280;20935;42.660;23.342;2023-03-25T03:24:12;94359.97;;;6.98;100.00
8049;BME280;20935;42.660;23.342;2023-03-25T03:27:07;94365.28;;;6.88;100.00
8049;BME280;20935;42.660;23.342;2023-03-25T03:30:02;94367.53;;;6.89;100.00
8049;BME280;20935;42.660;23.342;2023-03-25T03:32:53;94369.44;;;6.75;100.00
8049;BME280;20935;42.660;23.342;2023-03-25T03:35:44;94364.09;;;6.68;100.00
8049;BME280;20935;42.660;23.342;2023-03-25T03:38:35;94369.00;;;6.44;100.00
8049;BME280;20935;42.660;23.342;2023-03-25T03:41:24;94370.47;;;6.42;100.00
8049;BME280;20935;42.660;23.342;2023-03-25T03:44:13;94365.94;;;6.46;100.00
8049;BME280;20935;42.660;23.342;2023-03-25T03:47:04;94373.91;;;6.39;100.00
8049;BME280;20935;42.660;23.342;2023-03-25T03:49:54;94373.56;;;6.65;100.00
8049;BME280;20935;42.660;23.342;2023-03-25T03:52:43;94369.06;;;6.80;100.00
8049;BME280;20935;42.660;23.342;2023-03-25T03:55:34;94371.22;;;6.35;100.00
8049;BME280;20935;42.660;23.342;2023-03-25T03:58:25;94370.53;;;6.59;100.00
8049;BME280;20935;42.660;23.342;2023-03-25T04:01:17;94373.53;;;6.44;100.00
8049;BME280;20935;42.660;23.342;2023-03-25T04:04:17;94372.69;;;6.26;100.00
8049;BME280;20935;42.660;23.342;2023-03-25T04:07:08;94381.44;;;6.30;100.00
8049;BME280;20935;42.660;23.342;2023-03-25T04:10:02;94378.88;;;6.44;100.00
8049;BME280;20935;42.660;23.342;2023-03-25T04:12:51;94384.97;;;6.55;100.00
8049;BME280;20935;42.660;23.342;2023-03-25T04:15:37;94375.13;;;6.70;100.00
8049;BME280;20935;42.660;23.342;2023-03-25T04:18:22;94373.22;;;6.70;100.00
8049;BME280;20935;42.660;23.342;2023-03-25T04:21:09;94369.38;;;6.57;100.00
8049;BME280;20935;42.660;23.342;2023-03-25T04:23:58;94370.38;;;6.13;100.00
8049;BME280;20935;42.660;23.342;2023-03-25T04:26:44;94365.84;;;6.18;100.00
8049;BME280;20935;42.660;23.342;2023-03-25T04:29:31;94368.84;;;6.09;100.00
8049;BME280;20935;42.660;23.342;2023-03-25T04:32:17;94366.25;;;6.23;100.00
8049;BME280;20935;42.660;23.342;2023-03-25T04:35:03;94367.31;;;6.04;100.00
8049;BME280;20935;42.660;23.342;2023-03-25T04:37:50;94373.47;;;6.30;100.00
8049;BME280;20935;42.660;23.342;2023-03-25T04:40:37;94378.06;;;6.36;100.00
8049;BME280;20935;42.660;23.342;2023-03-25T04:43:24;94377.81;;;6.77;100.00
8049;BME280;20935;42.660;23.342;2023-03-25T04:46:10;94385.66;;;6.31;100.00
8049;BME280;20935;42.660;23.342;2023-03-25T04:48:57;94379.66;;;6.51;100.00
8049;BME280;20935;42.660;23.342;2023-03-25T04:51:43;94380.41;;;6.59;100.00
8049;BME280;20935;42.660;23.342;2023-03-25T04:54:31;94383.19;;;7.12;100.00
8049;BME280;20935;42.660;23.342;2023-03-25T04:57:16;94381.63;;;6.97;100.00
8049;BME280;20935;42.660;23.342;2023-03-25T05:00:02;94396.78;;;6.65;100.00
8049;BME280;20935;42.660;23.342;2023-03-25T05:02:51;94387.72;;;7.01;100.00
8049;BME280;20935;42.660;23.342;2023-03-25T05:05:37;94390.00;;;7.17;100.00
8049;BME280;20935;42.660;23.342;2023-03-25T05:08:23;94385.47;;;7.35;100.00
8049;BME280;20935;42.660;23.342;2023-03-25T05:11:10;94392.66;;;7.87;100.00
8049;BME280;20935;42.660;23.342;2023-03-25T05:13:56;94396.34;;;8.36;100.00
8049;BME280;20935;42.660;23.342;2023-03-25T05:16:41;94385.34;;;8.20;100.00
8049;BME280;20935;42.660;23.342;2023-03-25T05:19:27;94383.41;;;8.20;100.00
8049;BME280;20935;42.660;23.342;2023-03-25T05:22:12;94388.34;;;8.25;100.00
8049;BME280;20935;42.660;23.342;2023-03-25T05:24:58;94395.09;;;8.62;100.00
8049;BME280;20935;42.660;23.342;2023-03-25T05:27:47;94386.56;;;8.91;100.00
8049;BME280;20935;42.660;23.342;2023-03-25T05:30:32;94384.63;;;8.95;100.00
8049;BME280;20935;42.660;23.342;2023-03-25T05:33:22;94388.28;;;9.19;100.00
8049;BME280;20935;42.660;23.342;2023-03-25T05:36:10;94394.53;;;9.50;100.00
8049;BME280;20935;42.660;23.342;2023-03-25T05:38:57;94377.16;;;9.69;100.00
8049;BME280;20935;42.660;23.342;2023-03-25T05:41:43;94386.56;;;10.25;100.00
8049;BME280;20935;42.660;23.342;2023-03-25T05:44:30;94395.28;;;10.66;100.00
8049;BME280;20935;42.660;23.342;2023-03-25T05:47:15;94387.16;;;10.73;100.00
8049;BME280;20935;42.660;23.342;2023-03-25T05:50:03;94394.81;;;10.71;100.00
8049;BME280;20935;42.660;23.342;2023-03-25T05:52:49;94390.44;;;10.84;100.00
8049;BME280;20935;42.660;23.342;2023-03-25T05:55:34;94394.00;;;11.05;99.86
8049;BME280;20935;42.660;23.342;2023-03-25T05:58:20;94394.47;;;11.50;96.00
8049;BME280;20935;42.660;23.342;2023-03-25T06:01:09;94400.66;;;11.70;93.62
8049;BME280;20935;42.660;23.342;2023-03-25T06:03:56;94404.00;;;12.01;91.57
8049;BME280;20935;42.660;23.342;2023-03-25T06:06:43;94397.59;;;12.57;86.61
8049;BME280;20935;42.660;23.342;2023-03-25T06:09:29;94394.72;;;12.84;84.79
8049;BME280;20935;42.660;23.342;2023-03-25T06:12:19;94395.22;;;12.79;82.63
8049;BME280;20935;42.660;23.342;2023-03-25T06:15:06;94392.34;;;13.06;80.56
8049;BME280;20935;42.660;23.342;2023-03-25T06:17:54;94395.75;;;13.26;77.81
8049;BME280;20935;42.660;23.342;2023-03-25T06:20:39;94385.69;;;13.30;72.08
8049;BME280;20935;42.660;23.342;2023-03-25T06:23:25;94385.78;;;13.75;68.64
8049;BME280;20935;42.660;23.342;2023-03-25T06:26:10;94392.78;;;13.73;67.94
8049;BME280;20935;42.660;23.342;2023-03-25T06:28:56;94394.91;;;13.94;67.06
8049;BME280;20935;42.660;23.342;2023-03-25T06:31:42;94388.84;;;14.06;64.14
8049;BME280;20935;42.660;23.342;2023-03-25T06:34:28;94390.66;;;14.25;62.93
8049;BME280;20935;42.660;23.342;2023-03-25T06:37:17;94396.84;;;14.09;63.46
8049;BME280;20935;42.660;23.342;2023-03-25T06:40:03;94393.47;;;14.50;61.14
8049;BME280;20935;42.660;23.342;2023-03-25T06:42:50;94396.63;;;13.72;65.14
8049;BME280;20935;42.660;23.342;2023-03-25T06:45:35;94399.06;;;14.27;64.02
8049;BME280;20935;42.660;23.342;2023-03-25T06:48:21;94401.78;;;14.85;60.50
8049;BME280;20935;42.660;23.342;2023-03-25T06:51:08;94398.41;;;14.39;62.38
8049;BME280;20935;42.660;23.342;2023-03-25T06:53:54;94402.66;;;14.08;64.89
8049;BME280;20935;42.660;23.342;2023-03-25T06:56:40;94397.97;;;13.47;70.54
8049;BME280;20935;42.660;23.342;2023-03-25T06:59:25;94409.34;;;13.71;69.55
8049;BME280;20935;42.660;23.342;2023-03-25T07:02:11;94405.63;;;14.71;65.10
8049;BME280;20935;42.660;23.342;2023-03-25T07:04:56;94407.94;;;14.98;62.93
8049;BME280;20935;42.660;23.342;2023-03-25T07:07:43;94408.69;;;14.57;63.71
8049;BME280;20935;42.660;23.342;2023-03-25T07:10:29;94401.38;;;14.57;64.08
8049;BME280;20935;42.660;23.342;2023-03-25T07:13:15;94410.22;;;14.99;61.04
8049;BME280;20935;42.660;23.342;2023-03-25T07:16:02;94402.97;;;15.85;58.85
8049;BME280;20935;42.660;23.342;2023-03-25T07:18:47;94395.88;;;15.15;60.76
8049;BME280;20935;42.660;23.342;2023-03-25T07:21:33;94391.25;;;14.62;62.86
8049;BME280;20935;42.660;23.342;2023-03-25T07:24:21;94395.53;;;15.26;61.43
8049;BME280;20935;42.660;23.342;2023-03-25T07:27:06;94393.66;;;16.11;58.48
8049;BME280;20935;42.660;23.342;2023-03-25T07:29:51;94398.25;;;15.38;61.10
8049;BME280;20935;42.660;23.342;2023-03-25T07:32:38;94398.16;;;15.17;62.65
8049;BME280;20935;42.660;23.342;2023-03-25T07:35:24;94401.81;;;15.35;61.68
8049;BME280;20935;42.660;23.342;2023-03-25T07:38:09;94401.22;;;16.04;59.63
8049;BME280;20935;42.660;23.342;2023-03-25T07:40:56;94403.69;;;16.88;56.47
8049;BME280;20935;42.660;23.342;2023-03-25T07:43:42;94403.50;;;16.39;57.26
8049;BME280;20935;42.660;23.342;2023-03-25T07:46:29;94397.06;;;16.59;56.37
8049;BME280;20935;42.660;23.342;2023-03-25T07:49:15;94387.63;;;15.94;59.20
8049;BME280;20935;42.660;23.342;2023-03-25T07:52:01;94388.09;;;16.27;57.33
8049;BME280;20935;42.660;23.342;2023-03-25T07:54:46;94388.00;;;15.84;58.40
8049;BME280;20935;42.660;23.342;2023-03-25T07:57:33;94378.88;;;15.90;58.59
8049;BME280;20935;42.660;23.342;2023-03-25T08:00:19;94375.81;;;16.01;58.14
8049;BME280;20935;42.660;23.342;2023-03-25T08:03:05;94368.91;;;16.56;56.21
8049;BME280;20935;42.660;23.342;2023-03-25T08:05:50;94372.34;;;17.00;54.90
8049;BME280;20935;42.660;23.342;2023-03-25T08:08:36;94376.00;;;16.75;55.76
8049;BME280;20935;42.660;23.342;2023-03-25T08:11:21;94366.50;;;17.02;54.94
8049;BME280;20935;42.660;23.342;2023-03-25T08:14:08;94366.09;;;17.52;53.76
8049;BME280;20935;42.660;23.342;2023-03-25T08:16:54;94358.69;;;16.73;55.01
8049;BME280;20935;42.660;23.342;2023-03-25T08:19:39;94355.66;;;17.23;54.66
8049;BME280;20935;42.660;23.342;2023-03-25T08:22:25;94367.72;;;17.80;52.94
8049;BME280;20935;42.660;23.342;2023-03-25T08:25:11;94357.69;;;18.63;51.74
8049;BME280;20935;42.660;23.342;2023-03-25T08:27:57;94349.66;;;17.37;53.30
8049;BME280;20935;42.660;23.342;2023-03-25T08:30:44;94355.22;;;17.74;53.09
8049;BME280;20935;42.660;23.342;2023-03-25T08:33:32;94350.47;;;17.07;54.86
8049;BME280;20935;42.660;23.342;2023-03-25T08:36:23;94347.75;;;18.33;52.08
8049;BME280;20935;42.660;23.342;2023-03-25T08:39:09;94352.56;;;18.65;51.16
8049;BME280;20935;42.660;23.342;2023-03-25T08:41:56;94341.13;;;18.52;51.27
8049;BME280;20935;42.660;23.342;2023-03-25T08:44:42;94327.84;;;17.90;52.62
8049;BME280;20935;42.660;23.342;2023-03-25T08:47:29;94325.72;;;18.49;51.11
8049;BME280;20935;42.660;23.342;2023-03-25T08:50:14;94330.78;;;18.92;50.27
8049;BME280;20935;42.660;23.342;2023-03-25T08:53:00;94332.63;;;17.77;51.86
8049;BME280;20935;42.660;23.342;2023-03-25T08:55:45;94330.88;;;18.47;51.06
8049;BME280;20935;42.660;23.342;2023-03-25T08:58:31;94328.16;;;18.65;50.58
8049;BME280;20935;42.660;23.342;2023-03-25T09:01:16;94325.75;;;18.58;50.67
8049;BME280;20935;42.660;23.342;2023-03-25T09:04:03;94325.00;;;18.03;51.76
8049;BME280;20935;42.660;23.342;2023-03-25T09:06:49;94318.50;;;18.00;51.61
8049;BME280;20935;42.660;23.342;2023-03-25T09:09:34;94312.44;;;18.78;50.09
8049;BME280;20935;42.660;23.342;2023-03-25T09:12:20;94314.66;;;19.87;47.73
8049;BME280;20935;42.660;23.342;2023-03-25T09:15:07;94301.69;;;20.30;46.89
8049;BME280;20935;42.660;23.342;2023-03-25T09:17:53;94303.19;;;19.03;48.76
8049;BME280;20935;42.660;23.342;2023-03-25T09:20:39;94300.56;;;19.08;48.16
8049;BME280;20935;42.660;23.342;2023-03-25T09:23:25;94289.97;;;19.52;48.08
8049;BME280;20935;42.660;23.342;2023-03-25T09:26:10;94287.25;;;20.00;48.00
8049;BME280;20935;42.660;23.342;2023-03-25T09:28:56;94287.63;;;20.31;47.41
8049;BME280;20935;42.660;23.342;2023-03-25T09:31:43;94283.09;;;19.90;48.20
8049;BME280;20935;42.660;23.342;2023-03-25T09:34:29;94283.53;;;18.48;50.43
8049;BME280;20935;42.660;23.342;2023-03-25T09:37:16;94280.41;;;19.00;49.96
8049;BME280;20935;42.660;23.342;2023-03-25T09:40:02;94280.50;;;19.72;48.28
8049;BME280;20935;42.660;23.342;2023-03-25T09:42:57;94288.19;;;20.35;48.03
8049;BME280;20935;42.660;23.342;2023-03-25T09:45:45;94286.28;;;21.29;46.11
8049;BME280;20935;42.660;23.342;2023-03-25T09:48:35;94281.28;;;21.63;44.90
8049;BME280;20935;42.660;23.342;2023-03-25T09:51:24;94276.09;;;20.80;45.75
8049;BME280;20935;42.660;23.342;2023-03-25T09:54:17;94284.97;;;21.10;45.23
8049;BME280;20935;42.660;23.342;2023-03-25T09:57:07;94263.81;;;20.70;45.86
8049;BME280;20935;42.660;23.342;2023-03-25T09:59:58;94262.09;;;21.02;45.16
8049;BME280;20935;42.660;23.342;2023-03-25T10:02:50;94262.63;;;21.21;45.04
8049;BME280;20935;42.660;23.342;2023-03-25T10:05:47;94263.31;;;20.86;44.51
8049;BME280;20935;42.660;23.342;2023-03-25T10:08:43;94260.22;;;20.93;44.22
8049;BME280;20935;42.660;23.342;2023-03-25T10:11:43;94254.88;;;21.14;43.69
8049;BME280;20935;42.660;23.342;2023-03-25T10:14:36;94251.00;;;21.05;43.93
8049;BME280;20935;42.660;23.342;2023-03-25T10:17:29;94248.47;;;20.87;43.82
8049;BME280;20935;42.660;23.342;2023-03-25T10:20:22;94247.66;;;20.67;42.57
8049;BME280;20935;42.660;23.342;2023-03-25T10:23:18;94235.63;;;20.88;40.90
8049;BME280;20935;42.660;23.342;2023-03-25T10:26:10;94232.09;;;20.82;40.68
8049;BME280;20935;42.660;23.342;2023-03-25T10:29:03;94227.56;;;20.79;40.75
8049;BME280;20935;42.660;23.342;2023-03-25T10:31:51;94217.16;;;21.27;39.99
8049;BME280;20935;42.660;23.342;2023-03-25T10:34:40;94218.44;;;21.31;39.67
8049;BME280;20935;42.660;23.342;2023-03-25T10:37:33;94210.81;;;21.00;40.32
8049;BME280;20935;42.660;23.342;2023-03-25T10:40:22;94211.56;;;21.01;40.22
8049;BME280;20935;42.660;23.342;2023-03-25T10:43:14;94200.44;;;21.19;40.31
8049;BME280;20935;42.660;23.342;2023-03-25T10:46:11;94202.09;;;20.96;40.45
8049;BME280;20935;42.660;23.342;2023-03-25T10:48:58;94190.00;;;21.52;39.12
8049;BME280;20935;42.660;23.342;2023-03-25T10:51:44;94193.81;;;21.40;38.72
8049;BME280;20935;42.660;23.342;2023-03-25T10:54:34;94185.97;;;21.48;38.78
8049;BME280;20935;42.660;23.342;2023-03-25T10:57:24;94190.41;;;21.10;39.64
8049;BME280;20935;42.660;23.342;2023-03-25T11:00:15;94186.81;;;20.84;40.37
8049;BME280;20935;42.660;23.342;2023-03-25T11:03:02;94184.59;;;21.03;40.08
8049;BME280;20935;42.660;23.342;2023-03-25T11:05:53;94162.59;;;21.41;40.20
8049;BME280;20935;42.660;23.342;2023-03-25T11:08:55;94171.38;;;21.91;39.31
8049;BME280;20935;42.660;23.342;2023-03-25T11:11:41;94160.75;;;21.73;40.01
8049;BME280;20935;42.660;23.342;2023-03-25T11:14:28;94156.25;;;22.16;39.93
8049;BME280;20935;42.660;23.342;2023-03-25T11:17:15;94146.28;;;22.13;39.81
8049;BME280;20935;42.660;23.342;2023-03-25T11:20:05;94149.97;;;22.10;40.57
8049;BME280;20935;42.660;23.342;2023-03-25T11:23:00;94138.16;;;21.93;40.54
8049;BME280;20935;42.660;23.342;2023-03-25T11:25:49;94139.13;;;21.70;40.75
8049;BME280;20935;42.660;23.342;2023-03-25T11:28:36;94139.28;;;22.07;40.65
8049;BME280;20935;42.660;23.342;2023-03-25T11:31:25;94139.03;;;21.84;40.71
8049;BME280;20935;42.660;23.342;2023-03-25T11:34:17;94121.16;;;21.58;41.01
8049;BME280;20935;42.660;23.342;2023-03-25T11:37:11;94121.38;;;22.31;39.89
8049;BME280;20935;42.660;23.342;2023-03-25T11:40:04;94114.03;;;22.12;39.84
8049;BME280;20935;42.660;23.342;2023-03-25T11:42:51;94120.25;;;22.12;39.50
8049;BME280;20935;42.660;23.342;2023-03-25T11:45:38;94114.13;;;22.23;39.22
8049;BME280;20935;42.660;23.342;2023-03-25T11:48:29;94107.63;;;22.52;39.25
8049;BME280;20935;42.660;23.342;2023-03-25T11:51:20;94112.75;;;23.12;38.82
8049;BME280;20935;42.660;23.342;2023-03-25T11:54:11;94107.84;;;22.79;37.86
8049;BME280;20935;42.660;23.342;2023-03-25T11:57:01;94093.47;;;22.84;38.25
8049;BME280;20935;42.660;23.342;2023-03-25T11:59:48;94089.22;;;23.31;37.54
8049;BME280;20935;42.660;23.342;2023-03-25T12:02:36;94085.16;;;22.68;37.74
8049;BME280;20935;42.660;23.342;2023-03-25T12:05:22;94092.31;;;22.60;37.43
8049;BME280;20935;42.660;23.342;2023-03-25T12:08:12;94095.06;;;22.65;37.55
8049;BME280;20935;42.660;23.342;2023-03-25T12:11:05;94071.13;;;22.12;38.35
8049;BME280;20935;42.660;23.342;2023-03-25T12:14:10;94069.78;;;22.02;38.86
8049;BME280;20935;42.660;23.342;2023-03-25T12:17:03;94075.88;;;22.17;38.71
8049;BME280;20935;42.660;23.342;2023-03-25T12:19:56;94077.44;;;21.72;39.10
8049;BME280;20935;42.660;23.342;2023-03-25T12:22:54;94079.41;;;21.46;38.87
8049;BME280;20935;42.660;23.342;2023-03-25T12:25:51;94080.31;;;21.37;39.03
8049;BME280;20935;42.660;23.342;2023-03-25T12:28:56;94081.59;;;21.01;39.32
8049;BME280;20935;42.660;23.342;2023-03-25T12:31:56;94077.53;;;21.12;39.61
8049;BME280;20935;42.660;23.342;2023-03-25T12:34:56;94086.00;;;21.14;39.44
8049;BME280;20935;42.660;23.342;2023-03-25T12:37:57;94084.53;;;21.18;39.20
8049;BME280;20935;42.660;23.342;2023-03-25T12:40:54;94084.94;;;21.11;39.17
8049;BME280;20935;42.660;23.342;2023-03-25T12:43:52;94083.53;;;21.16;39.33
8049;BME280;20935;42.660;23.342;2023-03-25T12:46:50;94080.94;;;21.27;39.43
8049;BME280;20935;42.660;23.342;2023-03-25T12:49:50;94084.63;;;21.24;38.94
8049;BME280;20935;42.660;23.342;2023-03-25T12:52:43;94075.66;;;21.03;39.44
8049;BME280;20935;42.660;23.342;2023-03-25T12:55:48;94076.91;;;21.02;39.51
8049;BME280;20935;42.660;23.342;2023-03-25T13:01:58;94090.94;;;20.60;39.59
8049;BME280;20935;42.660;23.342;2023-03-25T13:05:02;94081.56;;;20.61;39.86
8049;BME280;20935;42.660;23.342;2023-03-25T13:07:52;94081.69;;;20.52;40.23
8049;BME280;20935;42.660;23.342;2023-03-25T13:10:39;94089.09;;;20.51;39.79
8049;BME280;20935;42.660;23.342;2023-03-25T13:13:28;94086.06;;;20.29;40.11
8049;BME280;20935;42.660;23.342;2023-03-25T13:16:19;94084.25;;;20.26;40.49
8049;BME280;20935;42.660;23.342;2023-03-25T13:19:09;94084.09;;;20.30;40.52
8049;BME280;20935;42.660;23.342;2023-03-25T13:22:02;94081.25;;;20.24;40.54
8049;BME280;20935;42.660;23.342;2023-03-25T13:24:52;94089.44;;;20.09;41.47
8049;BME280;20935;42.660;23.342;2023-03-25T13:27:40;94072.66;;;19.96;41.31
8049;BME280;20935;42.660;23.342;2023-03-25T13:30:30;94086.81;;;19.86;41.88
8049;BME280;20935;42.660;23.342;2023-03-25T13:33:23;94087.84;;;19.74;42.05
8049;BME280;20935;42.660;23.342;2023-03-25T13:36:14;94096.84;;;19.80;42.10
8049;BME280;20935;42.660;23.342;2023-03-25T13:39:06;94094.13;;;19.80;42.25
8049;BME280;20935;42.660;23.342;2023-03-25T13:41:59;94099.19;;;19.72;43.09
8049;BME280;20935;42.660;23.342;2023-03-25T13:44:47;94089.25;;;19.54;44.04
8049;BME280;20935;42.660;23.342;2023-03-25T13:47:38;94100.56;;;19.67;43.03
8049;BME280;20935;42.660;23.342;2023-03-25T13:50:29;94104.00;;;19.39;43.26
8049;BME280;20935;42.660;23.342;2023-03-25T13:53:19;94112.59;;;18.99;45.72
8049;BME280;20935;42.660;23.342;2023-03-25T13:56:30;94124.34;;;18.72;47.60
8049;BME280;20935;42.660;23.342;2023-03-25T13:59:36;94129.25;;;18.59;47.96
8049;BME280;20935;42.660;23.342;2023-03-25T14:02:36;94156.88;;;18.39;48.53
8049;BME280;20935;42.660;23.342;2023-03-25T14:05:37;94151.84;;;18.05;51.13
8049;BME280;20935;42.660;23.342;2023-03-25T14:09:04;94161.69;;;17.75;53.27
8049;BME280;20935;42.660;23.342;2023-03-25T14:12:01;94137.28;;;17.48;55.00
8049;BME280;20935;42.660;23.342;2023-03-25T14:14:53;94130.50;;;17.52;55.31
8049;BME280;20935;42.660;23.342;2023-03-25T14:17:41;94140.16;;;17.35;58.74
8049;BME280;20935;42.660;23.342;2023-03-25T14:20:32;94136.22;;;17.09;64.44
8049;BME280;20935;42.660;23.342;2023-03-25T14:23:20;94134.88;;;16.95;67.65
8049;BME280;20935;42.660;23.342;2023-03-25T14:26:08;94133.44;;;16.72;73.80
8049;BME280;20935;42.660;23.342;2023-03-25T14:28:55;94132.41;;;16.70;76.37
8049;BME280;20935;42.660;23.342;2023-03-25T14:31:58;94135.78;;;16.52;81.63
8049;BME280;20935;42.660;23.342;2023-03-25T14:34:44;94135.41;;;16.32;89.19
8049;BME280;20935;42.660;23.342;2023-03-25T14:37:34;94128.31;;;16.25;88.68
8049;BME280;20935;42.660;23.342;2023-03-25T14:40:44;94123.94;;;16.19;86.09
8049;BME280;20935;42.660;23.342;2023-03-25T14:43:35;94102.94;;;16.23;90.62
8049;BME280;20935;42.660;23.342;2023-03-25T14:46:21;94081.66;;;16.34;98.37
8049;BME280;20935;42.660;23.342;2023-03-25T14:49:18;94045.16;;;16.29;100.00
8049;BME280;20935;42.660;23.342;2023-03-25T14:52:12;94042.19;;;16.45;100.00
8049;BME280;20935;42.660;23.342;2023-03-25T14:55:07;94030.69;;;16.63;100.00
8049;BME280;20935;42.660;23.342;2023-03-25T14:57:57;94032.91;;;16.56;100.00
8049;BME280;20935;42.660;23.342;2023-03-25T15:00:49;94043.78;;;16.74;94.50
8049;BME280;20935;42.660;23.342;2023-03-25T15:03:38;94047.84;;;16.97;94.48
8049;BME280;20935;42.660;23.342;2023-03-25T15:06:31;94048.06;;;16.44;100.00